createdAt,value
2022-09-11T00:00:37.070Z,19.87
2022-09-11T00:03:07.761Z,19.89
2022-09-11T00:05:40.220Z,19.94
2022-09-11T00:08:12.515Z,19.98
2022-09-11T00:10:43.167Z,19.99
2022-09-11T00:13:15.394Z,20.09
2022-09-11T00:15:45.462Z,20.05
2022-09-11T00:18:17.772Z,20.04
2022-09-11T00:20:51.408Z,20.07
2022-09-11T00:23:23.510Z,20.04
2022-09-11T00:25:54.558Z,20.06
2022-09-11T00:28:27.393Z,20.08
2022-09-11T00:31:02.568Z,20.08
2022-09-11T00:33:35.660Z,20.06
2022-09-11T00:36:08.330Z,20.05
2022-09-11T00:38:39.251Z,20.01
2022-09-11T00:41:12.543Z,20.02
2022-09-11T00:44:03.730Z,20.03
2022-09-11T00:46:38.344Z,19.95
2022-09-11T00:49:21.205Z,19.95
2022-09-11T00:51:56.338Z,19.92
2022-09-11T00:54:31.690Z,19.88
2022-09-11T00:57:05.570Z,19.86
2022-09-11T00:59:36.402Z,20.00
2022-09-11T01:02:06.328Z,19.78
2022-09-11T01:04:37.969Z,19.76
2022-09-11T01:07:06.665Z,19.71
2022-09-11T01:09:36.796Z,19.68
2022-09-11T01:12:10.437Z,19.65
2022-09-11T01:14:52.987Z,19.67
2022-09-11T01:17:29.574Z,19.65
2022-09-11T01:20:25.112Z,19.67
2022-09-11T01:23:27.798Z,19.74
2022-09-11T01:26:14.799Z,19.62
2022-09-11T01:28:53.489Z,19.66
2022-09-11T01:31:31.002Z,19.65
2022-09-11T01:34:06.693Z,19.62
2022-09-11T01:36:46.421Z,19.55
2022-09-11T01:39:21.952Z,19.60
2022-09-11T01:42:02.520Z,19.59
2022-09-11T01:44:38.064Z,19.60
2022-09-11T01:47:11.783Z,19.57
2022-09-11T01:49:46.611Z,19.55
2022-09-11T01:52:21.124Z,19.58
2022-09-11T01:55:00.565Z,19.53
2022-09-11T01:57:38.185Z,19.54
2022-09-11T02:00:11.995Z,19.55
2022-09-11T02:02:59.821Z,19.49
2022-09-11T02:05:32.715Z,19.48
2022-09-11T02:08:08.521Z,19.50
2022-09-11T02:10:45.478Z,19.48
2022-09-11T02:13:17.946Z,19.43
2022-09-11T02:15:52.353Z,19.41
2022-09-11T02:18:28.429Z,19.32
2022-09-11T02:20:58.174Z,19.24
2022-09-11T02:23:26.816Z,19.24
2022-09-11T02:25:55.609Z,19.25
2022-09-11T02:28:27.363Z,19.20
2022-09-11T02:30:58.600Z,19.15
2022-09-11T02:33:30.509Z,19.17
2022-09-11T02:36:09.204Z,19.23
2022-09-11T02:38:53.192Z,19.25
2022-09-11T02:41:29.605Z,19.24
2022-09-11T02:44:09.761Z,19.31
2022-09-11T02:46:58.538Z,19.33
2022-09-11T02:49:42.375Z,19.32
2022-09-11T02:52:29.306Z,19.35
2022-09-11T02:55:08.162Z,19.29
2022-09-11T02:57:42.762Z,19.30
2022-09-11T03:00:14.229Z,19.31
2022-09-11T03:02:46.444Z,19.34
2022-09-11T03:05:16.161Z,19.33
2022-09-11T03:07:44.986Z,19.31
2022-09-11T03:10:13.780Z,19.32
2022-09-11T03:12:47.317Z,19.32
2022-09-11T03:15:17.373Z,19.35
2022-09-11T03:17:47.308Z,19.32
2022-09-11T03:20:16.865Z,19.34
2022-09-11T03:22:47.455Z,19.32
2022-09-11T03:25:16.130Z,19.30
2022-09-11T03:27:44.495Z,19.35
2022-09-11T03:30:14.661Z,19.34
2022-09-11T03:32:42.741Z,19.35
2022-09-11T03:35:15.150Z,19.29
2022-09-11T03:37:43.271Z,19.26
2022-09-11T03:40:11.794Z,19.23
2022-09-11T03:42:39.771Z,19.27
2022-09-11T03:45:09.268Z,19.29
2022-09-11T03:47:40.485Z,19.27
2022-09-11T03:50:09.622Z,19.27
2022-09-11T03:52:39.549Z,19.27
2022-09-11T03:55:08.919Z,19.27
2022-09-11T03:57:39.083Z,19.30
2022-09-11T04:00:10.027Z,19.24
2022-09-11T04:02:49.718Z,19.25
2022-09-11T04:05:39.024Z,19.26
2022-09-11T04:08:08.738Z,19.29
2022-09-11T04:10:38.264Z,19.22
2022-09-11T04:13:07.113Z,19.19
2022-09-11T04:15:36.148Z,19.20
2022-09-11T04:18:07.252Z,19.17
2022-09-11T04:20:43.029Z,19.14
2022-09-11T04:23:14.648Z,19.15
2022-09-11T04:25:46.251Z,19.11
2022-09-11T04:28:15.533Z,19.15
2022-09-11T04:30:44.055Z,19.13
2022-09-11T04:33:12.980Z,19.10
2022-09-11T04:35:41.553Z,19.07
2022-09-11T04:38:10.762Z,19.09
2022-09-11T04:40:41.799Z,19.12
2022-09-11T04:43:12.076Z,19.14
2022-09-11T04:45:40.522Z,19.15
2022-09-11T04:48:10.258Z,19.14
2022-09-11T04:50:40.705Z,19.14
2022-09-11T04:53:15.691Z,19.15
2022-09-11T04:55:48.080Z,19.11
2022-09-11T04:58:16.800Z,19.09
2022-09-11T05:00:45.825Z,18.99
2022-09-11T05:03:15.112Z,19.07
2022-09-11T05:05:44.875Z,19.11
2022-09-11T05:08:14.311Z,19.09
2022-09-11T05:10:43.405Z,19.10
2022-09-11T05:13:14.994Z,19.06
2022-09-11T05:15:43.746Z,19.01
2022-09-11T05:18:12.711Z,18.95
2022-09-11T05:20:41.564Z,18.97
2022-09-11T05:23:12.021Z,18.99
2022-09-11T05:25:40.329Z,19.02
2022-09-11T05:28:08.899Z,18.95
2022-09-11T05:30:38.797Z,18.97
2022-09-11T05:33:08.958Z,18.99
2022-09-11T05:35:37.547Z,18.93
2022-09-11T05:38:06.565Z,19.01
2022-09-11T05:40:35.099Z,19.02
2022-09-11T05:43:07.752Z,19.04
2022-09-11T05:45:38.883Z,19.06
2022-09-11T05:48:08.482Z,19.08
2022-09-11T05:50:39.945Z,19.06
2022-09-11T05:53:09.229Z,19.00
2022-09-11T05:55:38.101Z,18.98
2022-09-11T05:58:07.923Z,18.95
2022-09-11T06:00:40.536Z,18.93
2022-09-11T06:03:11.487Z,18.99
2022-09-11T06:05:44.525Z,19.01
2022-09-11T06:08:14.079Z,19.04
2022-09-11T06:10:47.476Z,19.09
2022-09-11T06:13:17.831Z,19.26
2022-09-11T06:15:50.019Z,19.08
2022-09-11T06:18:18.739Z,19.05
2022-09-11T06:20:59.252Z,19.09
2022-09-11T06:23:31.859Z,19.06
2022-09-11T06:26:05.913Z,19.11
2022-09-11T06:28:39.251Z,19.12
2022-09-11T06:31:13.318Z,19.16
2022-09-11T06:33:42.340Z,19.15
2022-09-11T06:36:15.285Z,19.17
2022-09-11T06:38:46.521Z,19.23
2022-09-11T06:41:17.875Z,19.29
2022-09-11T06:43:47.398Z,19.30
2022-09-11T06:46:19.370Z,19.32
2022-09-11T06:48:51.133Z,19.35
2022-09-11T06:51:27.643Z,19.38
2022-09-11T06:53:58.484Z,19.41
2022-09-11T06:56:32.714Z,19.45
2022-09-11T06:59:04.361Z,19.48
2022-09-11T07:01:37.228Z,19.54
2022-09-11T07:04:08.285Z,19.56
2022-09-11T07:06:38.603Z,19.60
2022-09-11T07:09:07.318Z,19.60
2022-09-11T07:11:45.287Z,19.64
2022-09-11T07:14:14.380Z,19.63
2022-09-11T07:16:49.786Z,19.67
2022-09-11T07:19:19.224Z,19.68
2022-09-11T07:21:48.089Z,19.71
2022-09-11T07:24:18.962Z,19.74
2022-09-11T07:26:47.807Z,19.72
2022-09-11T07:29:22.421Z,19.72
2022-09-11T07:31:52.358Z,19.71
2022-09-11T07:34:20.540Z,19.66
2022-09-11T07:36:52.225Z,19.66
2022-09-11T07:39:22.949Z,19.61
2022-09-11T07:41:59.233Z,19.70
2022-09-11T07:44:32.095Z,19.81
2022-09-11T07:47:03.095Z,19.93
2022-09-11T07:49:38.104Z,20.02
2022-09-11T07:52:07.805Z,20.06
2022-09-11T07:54:43.203Z,20.13
2022-09-11T07:57:13.025Z,20.15
2022-09-11T07:59:43.639Z,20.19
2022-09-11T08:02:15.680Z,20.20
2022-09-11T08:04:47.332Z,20.21
2022-09-11T08:07:17.852Z,20.31
2022-09-11T08:09:46.774Z,20.41
2022-09-11T08:12:14.881Z,20.46
2022-09-11T08:14:43.369Z,20.48
2022-09-11T08:17:19.701Z,20.53
2022-09-11T08:19:48.733Z,20.59
2022-09-11T08:22:16.730Z,20.66
2022-09-11T08:24:46.630Z,20.72
2022-09-11T08:27:17.827Z,20.76
2022-09-11T08:29:47.009Z,20.83
2022-09-11T08:32:15.211Z,20.90
2022-09-11T08:34:44.509Z,20.94
2022-09-11T08:37:12.769Z,20.93
2022-09-11T08:39:41.051Z,20.96
2022-09-11T08:42:16.196Z,20.98
2022-09-11T08:44:50.633Z,21.04
2022-09-11T08:47:42.051Z,21.07
2022-09-11T08:50:20.386Z,20.96
2022-09-11T08:55:29.512Z,21.03
2022-09-11T08:58:03.434Z,21.05
2022-09-11T09:00:40.818Z,21.10
2022-09-11T09:03:41.817Z,21.21
2022-09-11T09:06:28.132Z,21.25
2022-09-11T09:09:05.110Z,21.27
2022-09-11T09:11:41.726Z,21.29
2022-09-11T09:14:41.891Z,21.28
2022-09-11T09:17:16.480Z,21.18
2022-09-11T09:19:52.998Z,21.18
2022-09-11T09:22:34.244Z,21.17
2022-09-11T09:25:12.413Z,21.30
2022-09-11T09:27:47.944Z,21.42
2022-09-11T09:30:19.787Z,21.52
2022-09-11T09:32:55.070Z,21.65
2022-09-11T09:35:31.704Z,21.71
2022-09-11T09:38:03.864Z,21.74
2022-09-11T09:40:37.776Z,21.79
2022-09-11T09:43:34.617Z,21.61
2022-09-11T09:46:16.861Z,21.51
2022-09-11T09:48:45.144Z,21.44
2022-09-11T09:51:16.339Z,21.44
2022-09-11T09:53:54.513Z,21.44
2022-09-11T09:56:24.753Z,21.28
2022-09-11T09:59:02.786Z,21.17
2022-09-11T10:01:49.510Z,21.15
2022-09-11T10:04:21.672Z,21.04
2022-09-11T10:06:52.299Z,21.06
2022-09-11T10:09:25.725Z,21.11
2022-09-11T10:11:59.030Z,21.15
2022-09-11T10:14:50.385Z,21.16
2022-09-11T10:17:22.567Z,21.19
2022-09-11T10:19:52.089Z,21.18
2022-09-11T10:22:32.697Z,21.25
2022-09-11T10:25:14.070Z,21.23
2022-09-11T10:27:59.274Z,21.28
2022-09-11T10:30:40.137Z,21.28
2022-09-11T10:33:22.762Z,21.34
2022-09-11T10:35:55.873Z,21.33
2022-09-11T10:38:32.620Z,21.36
2022-09-11T10:41:10.514Z,21.40
2022-09-11T10:43:50.402Z,21.42
2022-09-11T10:46:41.870Z,21.48
2022-09-11T10:49:19.863Z,21.47
2022-09-11T10:52:05.797Z,21.53
2022-09-11T10:54:54.509Z,21.54
2022-09-11T10:57:33.158Z,21.55
2022-09-11T11:00:13.151Z,21.60
2022-09-11T11:02:45.365Z,21.62
2022-09-11T11:05:22.097Z,21.67
2022-09-11T11:08:24.485Z,21.84
2022-09-11T11:11:15.405Z,21.87
2022-09-11T11:14:02.656Z,21.85
2022-09-11T11:16:45.397Z,21.81
2022-09-11T11:19:28.402Z,21.83
2022-09-11T11:22:10.930Z,21.84
2022-09-11T11:24:56.417Z,21.85
2022-09-11T11:27:50.940Z,21.84
2022-09-11T11:30:21.733Z,21.93
2022-09-11T11:33:12.323Z,21.84
2022-09-11T11:35:49.573Z,21.83
2022-09-11T11:38:25.913Z,21.82
2022-09-11T11:41:03.181Z,21.82
2022-09-11T11:43:37.680Z,21.85
2022-09-11T11:46:18.160Z,21.86
2022-09-11T11:48:52.793Z,21.86
2022-09-11T11:51:27.599Z,21.87
2022-09-11T11:54:05.244Z,21.88
2022-09-11T11:56:41.067Z,21.92
2022-09-11T11:59:16.793Z,21.94
2022-09-11T12:01:51.864Z,22.02
2022-09-11T12:04:33.595Z,22.11
2022-09-11T12:07:06.071Z,22.27
2022-09-11T12:09:35.864Z,22.36
2022-09-11T12:12:08.048Z,22.52
2022-09-11T12:14:36.282Z,22.62
2022-09-11T12:17:21.310Z,22.76
2022-09-11T12:20:33.341Z,22.97
2022-09-11T12:23:03.797Z,23.11
2022-09-11T12:26:06.119Z,23.35
2022-09-11T12:28:37.987Z,23.52
2022-09-11T12:31:11.283Z,23.70
2022-09-11T12:33:57.480Z,23.88
2022-09-11T12:36:36.866Z,23.76
2022-09-11T12:39:19.549Z,23.76
2022-09-11T12:41:50.854Z,23.87
2022-09-11T12:44:34.550Z,23.85
2022-09-11T12:47:16.703Z,23.79
2022-09-11T12:49:55.714Z,23.63
2022-09-11T12:52:35.324Z,23.44
2022-09-11T12:55:30.697Z,23.35
2022-09-11T12:58:02.545Z,23.24
2022-09-11T13:00:43.755Z,23.23
2022-09-11T13:03:19.838Z,23.08
2022-09-11T13:06:00.666Z,22.97
2022-09-11T13:08:33.775Z,22.90
2022-09-11T13:11:38.975Z,23.11
2022-09-11T13:14:49.818Z,23.41
2022-09-11T13:17:30.824Z,23.40
2022-09-11T13:20:23.087Z,23.57
2022-09-11T13:22:58.678Z,23.56
2022-09-11T13:25:28.294Z,23.68
2022-09-11T13:28:02.112Z,23.89
2022-09-11T13:30:31.193Z,23.98
2022-09-11T13:33:07.248Z,24.20
2022-09-11T13:35:40.558Z,24.40
2022-09-11T13:38:16.732Z,24.62
2022-09-11T13:40:49.481Z,24.60
2022-09-11T13:43:21.919Z,24.52
2022-09-11T13:45:50.138Z,24.64
2022-09-11T13:48:23.512Z,24.84
2022-09-11T13:50:54.918Z,25.06
2022-09-11T13:53:26.087Z,25.21
2022-09-11T13:55:56.751Z,25.23
2022-09-11T13:58:33.249Z,25.29
2022-09-11T14:01:13.404Z,25.31
2022-09-11T14:03:47.564Z,25.39
2022-09-11T14:06:20.699Z,25.31
2022-09-11T14:08:57.059Z,25.44
2022-09-11T14:11:31.765Z,25.48
2022-09-11T14:14:08.425Z,25.39
2022-09-11T14:16:46.388Z,25.25
2022-09-11T14:19:19.411Z,25.13
2022-09-11T14:21:50.049Z,25.04
2022-09-11T14:24:29.911Z,24.95
2022-09-11T14:26:58.576Z,24.76
2022-09-11T14:29:32.653Z,24.70
2022-09-11T14:32:31.399Z,24.88
2022-09-11T14:35:01.550Z,25.13
2022-09-11T14:37:35.372Z,25.11
2022-09-11T14:40:08.784Z,25.13
2022-09-11T14:42:39.153Z,25.05
2022-09-11T14:45:11.367Z,25.02
2022-09-11T14:47:44.491Z,25.07
2022-09-11T14:50:14.377Z,25.20
2022-09-11T14:52:46.504Z,25.26
2022-09-11T14:55:18.954Z,25.19
2022-09-11T14:57:50.314Z,25.14
2022-09-11T15:00:20.658Z,25.18
2022-09-11T15:02:49.025Z,25.26
2022-09-11T15:05:20.454Z,25.19
2022-09-11T15:07:49.233Z,25.02
2022-09-11T15:10:18.977Z,24.91
2022-09-11T15:12:47.981Z,24.81
2022-09-11T15:15:19.353Z,24.73
2022-09-11T15:17:50.408Z,24.67
2022-09-11T15:20:20.874Z,24.61
2022-09-11T15:22:49.411Z,24.61
2022-09-11T15:25:18.978Z,24.54
2022-09-11T15:27:50.635Z,24.50
2022-09-11T15:30:19.830Z,24.44
2022-09-11T15:32:48.346Z,24.38
2022-09-11T15:35:21.350Z,24.39
2022-09-11T15:37:50.708Z,24.37
2022-09-11T15:40:20.337Z,24.39
2022-09-11T15:42:49.940Z,24.36
2022-09-11T15:45:18.662Z,24.32
2022-09-11T15:47:47.322Z,24.31
2022-09-11T15:50:24.862Z,24.30
2022-09-11T15:52:54.815Z,24.27
2022-09-11T15:55:27.587Z,24.26
2022-09-11T15:57:58.390Z,24.23
2022-09-11T16:00:26.967Z,24.23
2022-09-11T16:02:57.681Z,24.22
2022-09-11T16:05:27.386Z,24.19
2022-09-11T16:07:56.344Z,24.25
2022-09-11T16:10:29.181Z,24.34
2022-09-11T16:12:58.935Z,24.38
2022-09-11T16:15:27.326Z,24.40
2022-09-11T16:17:55.533Z,24.45
2022-09-11T16:20:25.014Z,24.48
2022-09-11T16:22:53.317Z,24.46
2022-09-11T16:25:21.287Z,24.47
2022-09-11T16:27:51.202Z,24.44
2022-09-11T16:30:42.591Z,24.41
2022-09-11T16:33:07.582Z,24.37
2022-09-11T16:35:36.227Z,24.29
2022-09-11T16:38:04.841Z,24.27
2022-09-11T16:40:33.172Z,24.22
2022-09-11T16:43:02.933Z,24.21
2022-09-11T16:45:32.750Z,24.13
2022-09-11T16:48:00.883Z,24.09
2022-09-11T16:50:29.161Z,24.03
2022-09-11T16:52:57.106Z,24.05
2022-09-11T16:55:25.414Z,24.06
2022-09-11T16:57:53.647Z,24.04
2022-09-11T17:00:23.135Z,24.01
2022-09-11T17:02:52.362Z,23.98
2022-09-11T17:05:20.914Z,24.00
2022-09-11T17:07:49.286Z,23.99
2022-09-11T17:10:17.333Z,23.92
2022-09-11T17:12:45.614Z,23.92
2022-09-11T17:15:14.367Z,23.87
2022-09-11T17:17:45.463Z,23.85
2022-09-11T17:20:17.145Z,23.82
2022-09-11T17:22:47.505Z,23.80
2022-09-11T17:25:17.414Z,23.78
2022-09-11T17:27:47.009Z,23.75
2022-09-11T17:30:17.429Z,23.71
2022-09-11T17:32:49.420Z,23.70
2022-09-11T17:35:19.186Z,23.67
2022-09-11T17:37:48.952Z,23.67
2022-09-11T17:40:18.738Z,23.61
2022-09-11T17:42:48.698Z,23.59
2022-09-11T17:45:17.465Z,23.56
2022-09-11T17:47:48.615Z,23.52
2022-09-11T17:50:18.470Z,23.46
2022-09-11T17:52:48.767Z,23.44
2022-09-11T17:55:17.417Z,23.41
2022-09-11T17:57:52.765Z,23.38
2022-09-11T18:00:23.684Z,23.35
2022-09-11T18:02:57.568Z,23.32
2022-09-11T18:05:28.995Z,23.26
2022-09-11T18:08:01.035Z,23.25
2022-09-11T18:10:30.905Z,23.21
2022-09-11T18:12:59.725Z,23.18
2022-09-11T18:15:28.949Z,23.17
2022-09-11T18:17:59.005Z,23.09
2022-09-11T18:20:27.701Z,23.06
2022-09-11T18:22:56.163Z,23.07
2022-09-11T18:25:26.291Z,23.07
2022-09-11T18:27:54.821Z,23.03
2022-09-11T18:30:22.910Z,23.00
2022-09-11T18:32:50.954Z,22.87
2022-09-11T18:35:20.805Z,22.90
2022-09-11T18:37:49.063Z,22.94
2022-09-11T18:40:17.941Z,22.85
2022-09-11T18:42:46.629Z,22.81
2022-09-11T18:45:14.852Z,22.78
2022-09-11T18:47:52.696Z,22.75
2022-09-11T18:50:23.353Z,22.75
2022-09-11T18:52:52.000Z,22.70
2022-09-11T18:55:22.834Z,22.72
2022-09-11T18:57:51.820Z,22.67
2022-09-11T19:00:22.249Z,22.65
2022-09-11T19:02:51.544Z,22.60
2022-09-11T19:05:20.393Z,22.59
2022-09-11T19:07:50.529Z,22.58
2022-09-11T19:10:19.278Z,22.56
2022-09-11T19:12:49.197Z,22.56
2022-09-11T19:15:19.313Z,22.55
2022-09-11T19:17:49.513Z,22.49
2022-09-11T19:20:20.708Z,22.50
2022-09-11T19:22:51.688Z,22.49
2022-09-11T19:25:20.387Z,22.45
2022-09-11T19:27:49.062Z,22.45
2022-09-11T19:30:19.924Z,22.39
2022-09-11T19:32:49.580Z,22.40
2022-09-11T19:35:19.245Z,22.35
2022-09-11T19:37:48.038Z,22.32
2022-09-11T19:40:19.881Z,22.27
2022-09-11T19:42:48.994Z,22.31
2022-09-11T19:45:18.836Z,22.30
2022-09-11T19:47:47.398Z,22.26
2022-09-11T19:50:21.532Z,22.24
2022-09-11T19:52:51.322Z,22.19
2022-09-11T19:55:21.254Z,22.20
2022-09-11T19:57:49.637Z,22.15
2022-09-11T20:00:22.500Z,22.11
2022-09-11T20:02:54.767Z,22.02
2022-09-11T20:05:23.164Z,22.07
2022-09-11T20:07:51.927Z,22.06
2022-09-11T20:10:23.964Z,22.01
2022-09-11T20:12:53.477Z,22.06
2022-09-11T20:15:22.597Z,22.00
2022-09-11T20:17:52.873Z,21.92
2022-09-11T20:20:21.241Z,21.98
2022-09-11T20:22:49.905Z,21.87
2022-09-11T20:25:19.583Z,21.91
2022-09-11T20:27:50.702Z,21.91
2022-09-11T20:30:20.393Z,21.91
2022-09-11T20:32:49.324Z,21.91
2022-09-11T20:35:18.786Z,21.90
2022-09-11T20:37:48.837Z,21.87
2022-09-11T20:40:18.802Z,21.81
2022-09-11T20:42:47.951Z,21.77
2022-09-11T20:45:19.783Z,21.74
2022-09-11T20:47:49.631Z,21.72
2022-09-11T20:50:19.053Z,21.66
2022-09-11T20:52:50.587Z,21.70
2022-09-11T20:55:20.317Z,21.65
2022-09-11T20:57:49.534Z,21.63
2022-09-11T21:00:19.516Z,21.66
2022-09-11T21:02:49.044Z,21.61
2022-09-11T21:05:19.159Z,21.61
2022-09-11T21:07:48.187Z,21.66
2022-09-11T21:10:18.146Z,21.62
2022-09-11T21:12:48.080Z,21.61
2022-09-11T21:15:19.437Z,21.56
2022-09-11T21:17:58.338Z,21.55
2022-09-11T21:20:30.319Z,21.47
2022-09-11T21:23:00.894Z,21.56
2022-09-11T21:25:30.747Z,21.55
2022-09-11T21:28:02.802Z,21.55
2022-09-11T21:30:31.538Z,21.58
2022-09-11T21:33:02.598Z,21.52
2022-09-11T21:35:31.361Z,21.45
2022-09-11T21:38:01.861Z,21.51
2022-09-11T21:40:34.203Z,21.48
2022-09-11T21:43:03.539Z,21.44
2022-09-11T21:45:32.007Z,21.47
2022-09-11T21:48:02.072Z,21.47
2022-09-11T21:50:31.356Z,21.47
2022-09-11T21:53:03.047Z,21.39
2022-09-11T21:55:37.888Z,21.39
2022-09-11T21:58:09.267Z,21.39
2022-09-11T22:00:42.939Z,21.42
2022-09-11T22:03:17.381Z,21.33
2022-09-11T22:05:48.829Z,21.57
2022-09-11T22:08:20.320Z,21.35
2022-09-11T22:10:51.262Z,21.34
2022-09-11T22:13:21.101Z,21.30
2022-09-11T22:15:52.521Z,21.31
2022-09-11T22:18:22.969Z,21.29
2022-09-11T22:20:51.009Z,21.26
2022-09-11T22:23:21.952Z,21.22
2022-09-11T22:25:59.167Z,21.29
2022-09-11T22:28:27.684Z,21.27
2022-09-11T22:30:57.716Z,21.26
2022-09-11T22:33:27.993Z,21.21
2022-09-11T22:35:56.008Z,21.19
2022-09-11T22:38:24.025Z,21.09
2022-09-11T22:40:54.666Z,21.16
2022-09-11T22:43:24.541Z,21.18
2022-09-11T22:45:54.570Z,21.13
2022-09-11T22:48:23.454Z,21.13
2022-09-11T22:50:57.197Z,21.13
2022-09-11T22:53:28.512Z,21.16
2022-09-11T22:55:59.267Z,21.12
2022-09-11T22:58:32.007Z,21.13
2022-09-11T23:01:04.235Z,21.11
2022-09-11T23:03:36.196Z,21.10
2022-09-11T23:06:24.354Z,21.07
2022-09-11T23:08:56.225Z,21.03
2022-09-11T23:21:33.816Z,21.02
2022-09-11T23:24:03.919Z,20.98
2022-09-11T23:26:35.596Z,20.96
2022-09-11T23:29:06.910Z,21.01
2022-09-11T23:31:41.425Z,21.02
2022-09-11T23:34:19.560Z,20.96
2022-09-11T23:36:50.987Z,20.98
2022-09-11T23:39:19.836Z,20.92
2022-09-11T23:41:50.870Z,20.90
2022-09-11T23:44:23.925Z,20.87
2022-09-11T23:46:52.269Z,21.06
2022-09-11T23:49:20.859Z,20.88
2022-09-11T23:51:51.490Z,20.84
2022-09-11T23:54:24.066Z,20.82
2022-09-11T23:56:54.296Z,20.85
2022-09-11T23:59:23.220Z,20.83
